Time;durP1;ratioP1;P1;durP2;ratioP2;P2;SDS_P1;SDS_P2;PMS_P1;PMS_P2;Temp;Humidity;BMP_temperature;BMP_pressure;BME280_temperature;BME280_humidity;BME280_pressure;Samples;Min_cycle;Max_cycle;Signal;HPM_P1;HPM_P2
2022/09/07 00:01:15;;;;;;;;;;;;;;;19.19;65.79;100986.44;4991935;28;19951;-68
2022/09/07 00:03:42;;;;;;;;;;;;;;;19.64;64.28;100995.03;5001340;28;20377;-67
2022/09/07 00:06:09;;;;;;;;;;;;;;;18.99;66.11;100995.22;5007128;28;19921;-67
2022/09/07 00:08:37;;;;;;;;;;;;;;;19.41;65.39;100994.28;5009842;28;20007;-67
2022/09/07 00:11:04;;;;;;;;;;;;;;;19.66;64.02;100993.09;5005367;28;20022;-67
2022/09/07 00:13:31;;;;;;;;;;;;;;;19.50;64.61;100998.88;5000432;28;19999;-67
2022/09/07 00:15:58;;;;;;;;;;;;;;;19.36;64.38;100997.31;4993888;28;19921;-67
2022/09/07 00:18:25;;;;;;;;;;;;;;;18.88;66.20;101002.25;5002390;28;20007;-67
2022/09/07 00:20:57;;;;;;;;;;;;;;;19.01;65.42;100996.78;4992776;28;20366;-67
2022/09/07 00:23:23;;;;;;;;;;;;;;;19.20;64.89;100991.63;5005874;28;20270;-68
2022/09/07 00:25:51;;;;;;;;;;;;;;;19.35;64.47;100978.84;5005050;28;19971;-67
2022/09/07 00:28:17;;;;;;;;;;;;;;;19.48;63.89;100984.00;5004045;28;20360;-67
2022/09/07 00:30:43;;;;;;;;;;;;;;;19.39;64.02;100982.94;5006002;28;20010;-67
2022/09/07 00:33:09;;;;;;;;;;;;;;;19.14;63.81;100973.50;4999854;28;19932;-67
2022/09/07 00:35:39;;;;;;;;;;;;;;;19.16;64.57;100974.25;4996179;28;19965;-67
2022/09/07 00:38:05;;;;;;;;;;;;;;;19.07;64.77;100975.00;4986491;28;19972;-67
2022/09/07 00:40:31;;;;;;;;;;;;;;;18.99;65.23;100971.31;4996760;28;19921;-67
2022/09/07 00:42:59;;;;;;;;;;;;;;;18.90;65.18;100979.06;4985783;28;20011;-67
2022/09/07 00:45:25;;;;;;;;;;;;;;;19.07;64.25;100979.50;4986052;28;19922;-67
2022/09/07 00:47:55;;;;;;;;;;;;;;;19.31;63.48;100986.25;4989714;28;19921;-68
2022/09/07 00:50:25;;;;;;;;;;;;;;;19.33;63.56;100978.97;4998901;28;19980;-68
2022/09/07 00:52:54;;;;;;;;;;;;;;;19.43;63.25;100969.31;5006451;28;19922;-68
2022/09/07 00:55:20;;;;;;;;;;;;;;;19.51;62.77;100965.97;5004993;28;19972;-68
2022/09/07 00:57:49;;;;;;;;;;;;;;;19.38;63.04;100976.78;5004672;28;19925;-68
2022/09/07 01:00:17;;;;;;;;;;;;;;;19.51;62.39;100973.94;5004259;28;19921;-67
2022/09/07 01:02:43;;;;;;;;;;;;;;;19.47;62.66;100969.03;5005872;28;19945;-67
2022/09/07 01:05:14;;;;;;;;;;;;;;;19.35;62.82;100978.84;5005317;28;19960;-68
2022/09/07 01:07:40;;;;;;;;;;;;;;;19.36;62.23;100976.06;5003586;28;20073;-68
2022/09/07 01:10:07;;;;;;;;;;;;;;;19.27;62.42;100982.16;5002489;28;19921;-68
2022/09/07 01:12:34;;;;;;;;;;;;;;;19.14;62.71;100988.66;4997109;28;20016;-68
2022/09/07 01:15:00;;;;;;;;;;;;;;;19.08;62.46;100994.44;5002113;28;19921;-68
2022/09/07 01:17:33;;;;;;;;;;;;;;;18.95;62.45;100991.97;5005002;28;19922;-68
2022/09/07 01:20:24;;;;;;;;;;;;;;;18.81;63.21;100989.59;5005336;28;20333;-68
2022/09/07 01:23:11;;;;;;;;;;;;;;;18.46;64.17;100987.97;5004957;28;19925;-68
2022/09/07 01:25:41;;;;;;;;;;;;;;;18.45;64.37;100985.44;4977337;28;19973;-68
2022/09/07 01:28:12;;;;;;;;;;;;;;;18.24;65.40;100989.81;5004632;28;19987;-68
2022/09/07 01:30:41;;;;;;;;;;;;;;;18.34;64.86;100981.00;5006133;28;19952;-68
2022/09/07 01:33:18;;;;;;;;;;;;;;;18.30;65.02;100984.00;5006034;28;19921;-68
2022/09/07 01:35:47;;;;;;;;;;;;;;;18.19;65.60;100987.50;5001294;28;19961;-68
2022/09/07 01:38:16;;;;;;;;;;;;;;;18.19;65.67;100986.66;5004528;28;20011;-68
2022/09/07 01:40:46;;;;;;;;;;;;;;;18.17;65.35;100973.53;4990795;28;19991;-68
2022/09/07 01:43:16;;;;;;;;;;;;;;;18.13;65.35;100976.56;5005386;28;19922;-68
2022/09/07 01:45:43;;;;;;;;;;;;;;;18.01;66.01;100983.66;4997212;28;19929;-67
2022/09/07 01:48:12;;;;;;;;;;;;;;;18.02;65.93;100981.88;5004363;28;19921;-68
2022/09/07 01:50:41;;;;;;;;;;;;;;;18.05;65.83;100977.16;5006427;28;20353;-68
2022/09/07 01:53:14;;;;;;;;;;;;;;;18.03;65.63;100978.25;5008665;28;19961;-68
2022/09/07 01:55:43;;;;;;;;;;;;;;;18.17;65.47;100978.84;4999805;28;19937;-68
2022/09/07 01:58:11;;;;;;;;;;;;;;;18.26;64.78;100983.41;5002766;28;19968;-68
2022/09/07 02:00:41;;;;;;;;;;;;;;;18.26;64.89;100972.78;5001913;28;19991;-68
2022/09/07 02:03:12;;;;;;;;;;;;;;;18.42;64.22;100981.22;5004241;28;20008;-68
2022/09/07 02:05:42;;;;;;;;;;;;;;;18.38;64.00;100971.81;5005739;28;20435;-68
2022/09/07 02:08:11;;;;;;;;;;;;;;;18.41;63.77;100976.03;5008938;28;19961;-68
2022/09/07 02:10:39;;;;;;;;;;;;;;;18.34;64.21;100974.84;5007044;28;20297;-67
2022/09/07 02:13:08;;;;;;;;;;;;;;;18.26;64.34;100977.25;4988979;28;19980;-68
2022/09/07 02:15:41;;;;;;;;;;;;;;;18.54;62.89;100981.22;5004566;28;19925;-68
2022/09/07 02:18:10;;;;;;;;;;;;;;;18.51;62.99;100970.84;5007318;28;20014;-68
2022/09/07 02:20:37;;;;;;;;;;;;;;;18.31;63.34;100975.94;4990274;28;19953;-68
2022/09/07 02:23:06;;;;;;;;;;;;;;;18.34;62.96;100972.19;4988905;28;19965;-67
2022/09/07 02:25:36;;;;;;;;;;;;;;;18.02;63.63;100966.78;4996586;28;19941;-67
2022/09/07 02:28:06;;;;;;;;;;;;;;;18.05;64.16;100968.34;5002869;28;19921;-67
2022/09/07 02:30:32;;;;;;;;;;;;;;;18.18;63.35;100964.59;5002806;28;19944;-67
2022/09/07 02:32:58;;;;;;;;;;;;;;;17.96;63.87;100968.09;5008156;28;20007;-67
2022/09/07 02:35:26;;;;;;;;;;;;;;;17.84;63.89;100962.94;5007316;28;20549;-67
2022/09/07 02:37:52;;;;;;;;;;;;;;;17.92;63.40;100952.56;5008272;28;20396;-67
2022/09/07 02:40:19;;;;;;;;;;;;;;;17.70;64.43;100958.69;5007092;28;19980;-68
2022/09/07 02:42:46;;;;;;;;;;;;;;;17.58;65.19;100954.34;4992642;28;19921;-67
2022/09/07 02:45:13;;;;;;;;;;;;;;;17.60;64.94;100947.13;5003556;28;20627;-67
2022/09/07 02:47:48;;;;;;;;;;;;;;;17.58;64.75;100930.50;5009266;28;20289;-67
2022/09/07 02:50:21;;;;;;;;;;;;;;;17.51;65.26;100921.28;5007473;28;20354;-68
2022/09/07 02:52:55;;;;;;;;;;;;;;;17.58;64.79;100921.69;5005385;28;19953;-67
2022/09/07 02:55:26;;;;;;;;;;;;;;;17.46;65.33;100910.19;4998196;28;19957;-67
2022/09/07 02:57:59;;;;;;;;;;;;;;;17.46;65.61;100905.75;5005913;28;19921;-67
2022/09/07 03:00:25;;;;;;;;;;;;;;;17.48;65.44;100901.16;5008585;28;20405;-67
2022/09/07 03:02:57;;;;;;;;;;;;;;;17.37;65.91;100902.94;5008431;28;19925;-67
2022/09/07 03:05:25;;;;;;;;;;;;;;;17.34;65.83;100898.72;4991953;28;19965;-67
2022/09/07 03:07:56;;;;;;;;;;;;;;;17.25;66.36;100902.09;4987056;28;20015;-67
2022/09/07 03:10:23;;;;;;;;;;;;;;;17.30;66.35;100912.31;4995711;28;19921;-67
2022/09/07 03:12:49;;;;;;;;;;;;;;;17.26;66.07;100906.41;4986988;28;19929;-67
2022/09/07 03:15:17;;;;;;;;;;;;;;;17.18;66.60;100924.75;4998280;28;19925;-67
2022/09/07 03:17:43;;;;;;;;;;;;;;;17.39;65.75;100912.47;4995743;28;19926;-67
2022/09/07 03:20:10;;;;;;;;;;;;;;;17.61;64.90;100906.38;5011381;28;20019;-68
2022/09/07 03:22:36;;;;;;;;;;;;;;;17.67;64.40;100915.66;5027154;28;19921;-67
2022/09/07 03:25:05;;;;;;;;;;;;;;;17.40;65.10;100914.19;5009907;28;19987;-67
2022/09/07 03:27:31;;;;;;;;;;;;;;;17.41;64.72;100918.50;5004961;28;19983;-68
2022/09/07 03:29:58;;;;;;;;;;;;;;;17.13;65.47;100937.47;4998113;28;19961;-67
2022/09/07 03:32:24;;;;;;;;;;;;;;;16.90;66.25;100930.41;5000214;28;19948;-67
2022/09/07 03:34:51;;;;;;;;;;;;;;;16.83;67.14;100916.78;5000491;28;20018;-67
2022/09/07 03:37:17;;;;;;;;;;;;;;;16.97;66.59;100908.66;5006921;28;20377;-67
2022/09/07 03:39:43;;;;;;;;;;;;;;;16.53;67.51;100913.72;4996139;28;19969;-67
2022/09/07 03:42:10;;;;;;;;;;;;;;;16.47;68.48;100917.69;4999844;28;19936;-67
2022/09/07 03:44:37;;;;;;;;;;;;;;;16.28;68.72;100912.03;5005636;28;20373;-67
2022/09/07 03:47:03;;;;;;;;;;;;;;;16.37;68.56;100910.53;5007391;28;19969;-66
2022/09/07 03:49:29;;;;;;;;;;;;;;;16.44;68.38;100911.78;5005745;28;19976;-67
2022/09/07 03:51:55;;;;;;;;;;;;;;;16.72;67.79;100902.66;5006083;28;20321;-67
2022/09/07 03:54:22;;;;;;;;;;;;;;;16.71;67.79;100906.25;5007449;28;19961;-67
2022/09/07 03:56:48;;;;;;;;;;;;;;;16.83;67.20;100908.84;5003557;28;19960;-67
2022/09/07 03:59:16;;;;;;;;;;;;;;;16.85;67.21;100906.09;5001691;28;19922;-67
2022/09/07 04:01:42;;;;;;;;;;;;;;;16.82;66.90;100909.78;5013601;28;19967;-67
2022/09/07 04:04:08;;;;;;;;;;;;;;;16.84;66.80;100909.69;5013722;28;19961;-67
2022/09/07 04:06:35;;;;;;;;;;;;;;;16.73;66.90;100899.06;5007310;28;20405;-67
2022/09/07 04:09:01;;;;;;;;;;;;;;;16.76;67.09;100904.13;5003049;28;19925;-67
2022/09/07 04:11:27;;;;;;;;;;;;;;;16.89;66.60;100908.38;5001889;28;19991;-67
2022/09/07 04:13:54;;;;;;;;;;;;;;;16.85;66.69;100908.75;5007275;28;19968;-67
2022/09/07 04:16:22;;;;;;;;;;;;;;;17.01;65.69;100890.72;4998363;28;19961;-67
2022/09/07 04:18:49;;;;;;;;;;;;;;;17.04;65.70;100898.41;4975488;28;20019;-67
2022/09/07 04:21:16;;;;;;;;;;;;;;;17.08;65.63;100894.56;4987017;28;19921;-67
2022/09/07 04:23:42;;;;;;;;;;;;;;;16.99;65.92;100890.00;5001995;28;20353;-67
2022/09/07 04:26:13;;;;;;;;;;;;;;;16.90;66.27;100885.38;5002225;28;19925;-67
2022/09/07 04:28:39;;;;;;;;;;;;;;;16.81;66.43;100886.09;5006560;28;19926;-67
2022/09/07 04:31:05;;;;;;;;;;;;;;;16.82;67.02;100888.59;5006173;28;19972;-67
2022/09/07 04:33:33;;;;;;;;;;;;;;;16.96;66.52;100884.94;5000709;28;20031;-67
2022/09/07 04:36:00;;;;;;;;;;;;;;;17.12;65.60;100874.84;4998342;28;19921;-67
2022/09/07 04:38:27;;;;;;;;;;;;;;;17.10;65.81;100863.53;4990295;28;20310;-67
2022/09/07 04:40:57;;;;;;;;;;;;;;;17.06;65.10;100861.22;5004725;28;19961;-67
2022/09/07 04:43:24;;;;;;;;;;;;;;;17.02;65.36;100860.63;5000001;28;19961;-67
2022/09/07 04:45:50;;;;;;;;;;;;;;;16.93;65.66;100867.44;5007003;28;19957;-67
2022/09/07 04:48:16;;;;;;;;;;;;;;;16.97;65.52;100857.47;5004674;28;19983;-67
2022/09/07 04:50:44;;;;;;;;;;;;;;;17.08;65.22;100864.59;5004626;28;19961;-67
2022/09/07 04:53:10;;;;;;;;;;;;;;;17.29;64.44;100870.91;5005598;28;19925;-67
2022/09/07 04:55:36;;;;;;;;;;;;;;;17.42;63.82;100856.56;5003752;28;19952;-67
2022/09/07 04:58:02;;;;;;;;;;;;;;;17.29;64.22;100861.16;5005775;28;19961;-67
2022/09/07 05:00:28;;;;;;;;;;;;;;;17.40;64.08;100847.06;5005502;28;21312;-67
2022/09/07 05:02:55;;;;;;;;;;;;;;;17.55;63.83;100843.22;5005952;28;19945;-67
2022/09/07 05:05:21;;;;;;;;;;;;;;;17.57;63.55;100843.09;5006820;28;20284;-67
2022/09/07 05:07:48;;;;;;;;;;;;;;;17.46;64.34;100843.91;5004744;28;20419;-67
2022/09/07 05:10:15;;;;;;;;;;;;;;;17.50;64.17;100858.63;5010682;28;19945;-67
2022/09/07 05:12:41;;;;;;;;;;;;;;;16.97;65.75;100874.22;5005923;28;19956;-67
2022/09/07 05:15:07;;;;;;;;;;;;;;;16.62;67.12;100885.78;5003602;28;19945;-67
2022/09/07 05:17:34;;;;;;;;;;;;;;;16.52;68.04;100886.41;5004700;28;19922;-67
2022/09/07 05:20:00;;;;;;;;;;;;;;;16.79;67.41;100858.88;4989788;28;19968;-67
2022/09/07 05:22:26;;;;;;;;;;;;;;;17.07;66.22;100852.31;4998374;28;19929;-67
2022/09/07 05:24:54;;;;;;;;;;;;;;;17.29;65.72;100847.06;5001258;28;19922;-67
2022/09/07 05:27:20;;;;;;;;;;;;;;;17.28;65.95;100830.31;4997028;28;19964;-66
2022/09/07 05:29:46;;;;;;;;;;;;;;;17.31;65.67;100835.38;5008686;28;19968;-67
2022/09/07 05:32:13;;;;;;;;;;;;;;;17.27;66.02;100838.38;5005037;28;20439;-67
2022/09/07 05:34:39;;;;;;;;;;;;;;;17.61;64.89;100856.00;4998662;28;19957;-67
2022/09/07 05:37:06;;;;;;;;;;;;;;;17.90;63.65;100851.03;5008002;28;20300;-67
2022/09/07 05:39:32;;;;;;;;;;;;;;;18.05;62.47;100844.47;5004486;28;19948;-67
2022/09/07 05:42:00;;;;;;;;;;;;;;;17.80;64.03;100853.59;5009572;28;20388;-66
2022/09/07 05:44:26;;;;;;;;;;;;;;;17.94;63.32;100855.97;5007518;28;19964;-66
2022/09/07 05:46:52;;;;;;;;;;;;;;;17.82;64.07;100851.63;5009246;28;19948;-66
2022/09/07 05:49:18;;;;;;;;;;;;;;;17.87;63.88;100851.28;5005891;28;20340;-67
2022/09/07 05:51:45;;;;;;;;;;;;;;;17.74;64.66;100847.91;4993428;28;19922;-67
2022/09/07 05:54:11;;;;;;;;;;;;;;;17.51;65.03;100842.56;4990132;28;19933;-67
2022/09/07 05:56:37;;;;;;;;;;;;;;;17.52;65.15;100844.28;4999742;28;19965;-67
2022/09/07 05:59:05;;;;;;;;;;;;;;;17.04;66.89;100840.97;5003521;28;19956;-67
2022/09/07 06:01:31;;;;;;;;;;;;;;;17.40;65.93;100839.97;5014380;28;20266;-67
2022/09/07 06:03:57;;;;;;;;;;;;;;;17.30;66.16;100851.38;5009765;28;19967;-67
2022/09/07 06:06:24;;;;;;;;;;;;;;;17.70;65.20;100842.00;5010177;28;19925;-67
2022/09/07 06:08:51;;;;;;;;;;;;;;;17.75;65.06;100860.19;5008119;28;20027;-67
2022/09/07 06:11:18;;;;;;;;;;;;;;;17.98;64.24;100857.41;5006134;28;19975;-67
2022/09/07 06:13:44;;;;;;;;;;;;;;;17.79;65.06;100862.50;5009574;28;19964;-67
2022/09/07 06:16:12;;;;;;;;;;;;;;;17.73;65.43;100883.38;5008408;28;19925;-67
2022/09/07 06:18:39;;;;;;;;;;;;;;;18.61;63.50;100921.34;5005662;28;19926;-67
2022/09/07 06:21:06;;;;;;;;;;;;;;;19.14;61.62;100952.25;5007140;28;19925;-68
2022/09/07 06:23:33;;;;;;;;;;;;;;;18.72;62.63;100938.09;5007615;28;19991;-68
2022/09/07 06:25:59;;;;;;;;;;;;;;;18.95;62.71;100898.97;5008317;28;19948;-68
2022/09/07 06:28:29;;;;;;;;;;;;;;;19.60;59.94;100889.84;5007159;28;19957;-68
2022/09/07 06:30:58;;;;;;;;;;;;;;;19.89;58.71;100914.75;5004047;28;19972;-68
2022/09/07 06:33:26;;;;;;;;;;;;;;;19.89;58.66;100933.41;4968431;28;19922;-68
2022/09/07 06:35:56;;;;;;;;;;;;;;;20.09;57.43;100905.88;5001824;28;20396;-68
2022/09/07 06:38:22;;;;;;;;;;;;;;;20.50;57.13;100904.88;5006931;28;19921;-68
2022/09/07 06:40:49;;;;;;;;;;;;;;;20.64;56.69;100938.25;5007433;28;19925;-68
2022/09/07 06:43:15;;;;;;;;;;;;;;;21.27;55.22;100937.69;5007907;28;19936;-68
2022/09/07 06:45:41;;;;;;;;;;;;;;;21.47;53.63;100932.31;5007491;28;19929;-68
2022/09/07 06:48:07;;;;;;;;;;;;;;;21.28;53.57;100955.38;5015111;28;20388;-69
2022/09/07 06:50:35;;;;;;;;;;;;;;;20.96;55.05;100944.13;5007302;28;19921;-68
2022/09/07 06:53:02;;;;;;;;;;;;;;;21.52;53.22;100925.56;5006871;28;19960;-68
2022/09/07 06:55:28;;;;;;;;;;;;;;;21.70;54.41;100941.63;5006123;28;19984;-68
2022/09/07 06:57:54;;;;;;;;;;;;;;;21.75;53.41;100926.03;5006820;28;19928;-68
2022/09/07 07:00:21;;;;;;;;;;;;;;;21.67;54.45;100897.41;5008642;28;19956;-68
2022/09/07 07:02:47;;;;;;;;;;;;;;;21.75;54.61;100915.38;5006285;28;20339;-68
2022/09/07 07:05:13;;;;;;;;;;;;;;;22.10;54.06;100915.50;5007941;28;19921;-69
2022/09/07 07:07:41;;;;;;;;;;;;;;;22.43;53.58;100916.69;5026918;28;19921;-68
2022/09/07 07:10:07;;;;;;;;;;;;;;;22.32;53.21;100901.72;5010332;28;19929;-68
2022/09/07 07:12:33;;;;;;;;;;;;;;;22.85;52.24;100913.47;5006546;28;20584;-68
2022/09/07 07:15:00;;;;;;;;;;;;;;;22.90;51.70;100913.84;5008450;28;19961;-68
2022/09/07 07:17:26;;;;;;;;;;;;;;;23.10;51.08;100913.50;5005937;28;19921;-68
2022/09/07 07:19:52;;;;;;;;;;;;;;;22.95;50.70;100904.34;5006953;28;20012;-68
2022/09/07 07:22:18;;;;;;;;;;;;;;;23.24;50.78;100896.88;5008137;28;19960;-68
2022/09/07 07:24:46;;;;;;;;;;;;;;;23.49;49.93;100883.69;5005233;28;19973;-68
2022/09/07 07:27:12;;;;;;;;;;;;;;;23.10;50.74;100888.59;5006337;28;20333;-68
2022/09/07 07:29:38;;;;;;;;;;;;;;;23.26;50.75;100884.19;4991321;28;19964;-68
2022/09/07 07:32:05;;;;;;;;;;;;;;;23.22;50.58;100888.19;4987697;28;20174;-68
2022/09/07 07:34:31;;;;;;;;;;;;;;;23.33;50.18;100892.44;4995196;28;19995;-68
2022/09/07 07:36:58;;;;;;;;;;;;;;;23.39;50.77;100899.00;5008178;28;19925;-68
2022/09/07 07:39:24;;;;;;;;;;;;;;;23.77;50.73;100882.50;4997848;28;20015;-68
2022/09/07 07:41:51;;;;;;;;;;;;;;;23.79;50.74;100880.50;5006159;28;19925;-68
2022/09/07 07:44:18;;;;;;;;;;;;;;;23.98;49.74;100887.44;5004979;28;19979;-67
2022/09/07 07:46:46;;;;;;;;;;;;;;;23.69;50.26;100890.47;5004961;28;20375;-67
2022/09/07 07:49:12;;;;;;;;;;;;;;;23.47;50.62;100891.03;5006329;28;19921;-67
2022/09/07 07:51:39;;;;;;;;;;;;;;;23.77;49.82;100886.03;5006668;28;20665;-67
2022/09/07 07:54:05;;;;;;;;;;;;;;;24.01;48.96;100885.28;5004778;28;19957;-67
2022/09/07 07:56:31;;;;;;;;;;;;;;;24.21;48.74;100884.03;4999181;28;19956;-69
2022/09/07 07:59:00;;;;;;;;;;;;;;;24.37;48.33;100885.91;5005418;28;19925;-68
2022/09/07 08:01:26;;;;;;;;;;;;;;;24.42;47.15;100878.22;5005662;28;20013;-68
2022/09/07 08:03:52;;;;;;;;;;;;;;;24.38;48.18;100868.00;5017763;28;20308;-68
2022/09/07 08:06:20;;;;;;;;;;;;;;;23.35;50.65;100866.38;5006431;28;19922;-68
2022/09/07 08:08:46;;;;;;;;;;;;;;;23.26;50.76;100870.81;5004992;28;20404;-68
2022/09/07 08:11:13;;;;;;;;;;;;;;;23.49;50.40;100862.28;5006224;28;19979;-68
2022/09/07 08:13:40;;;;;;;;;;;;;;;23.71;50.11;100859.06;5011071;28;19921;-70
2022/09/07 08:16:09;;;;;;;;;;;;;;;23.79;49.58;100858.25;5003507;28;19922;-68
2022/09/07 08:18:36;;;;;;;;;;;;;;;23.49;50.36;100843.56;5014607;28;19943;-68
2022/09/07 08:21:03;;;;;;;;;;;;;;;23.62;49.57;100850.13;5013467;28;19921;-68
2022/09/07 08:23:30;;;;;;;;;;;;;;;23.29;49.94;100851.78;5025267;28;20343;-68
2022/09/07 08:25:58;;;;;;;;;;;;;;;23.27;50.48;100859.13;5006868;28;19925;-68
2022/09/07 08:28:24;;;;;;;;;;;;;;;23.38;50.20;100849.16;5003263;28;20294;-68
2022/09/07 08:30:51;;;;;;;;;;;;;;;23.69;49.96;100853.00;5003734;28;19925;-68
2022/09/07 08:33:18;;;;;;;;;;;;;;;22.80;51.80;100849.75;5006333;28;19975;-68
2022/09/07 08:35:54;;;;;;;;;;;;;;;21.83;54.58;100856.75;5006063;28;19921;-68
2022/09/07 08:38:20;;;;;;;;;;;;;;;21.27;55.97;100855.00;5004462;28;19929;-68
2022/09/07 08:40:46;;;;;;;;;;;;;;;21.68;55.04;100856.41;5005633;28;19921;-68
2022/09/07 08:43:18;;;;;;;;;;;;;;;21.92;54.56;100842.53;5004936;28;19922;-68
2022/09/07 08:45:46;;;;;;;;;;;;;;;21.81;54.28;100858.72;5006068;28;19929;-68
2022/09/07 08:48:15;;;;;;;;;;;;;;;21.11;55.84;100848.59;5005180;28;19922;-68
2022/09/07 08:50:47;;;;;;;;;;;;;;;21.09;56.09;100848.72;5004157;28;19925;-68
2022/09/07 08:53:14;;;;;;;;;;;;;;;21.00;56.91;100860.22;5006082;28;19945;-68
2022/09/07 08:55:46;;;;;;;;;;;;;;;21.49;55.89;100867.16;5000556;28;19964;-68
2022/09/07 08:58:15;;;;;;;;;;;;;;;21.21;56.08;100865.44;5005032;28;20406;-68
2022/09/07 09:00:41;;;;;;;;;;;;;;;21.62;55.17;100862.31;4993370;28;19921;-68
2022/09/07 09:03:15;;;;;;;;;;;;;;;22.03;54.04;100870.84;4996526;28;19980;-69
2022/09/07 09:05:48;;;;;;;;;;;;;;;22.36;52.80;100877.41;5023268;28;19921;-69
2022/09/07 09:08:23;;;;;;;;;;;;;;;22.70;51.99;100881.09;4993202;28;19921;-68
2022/09/07 09:10:55;;;;;;;;;;;;;;;23.18;50.60;100892.16;5009216;28;19936;-68
2022/09/07 09:13:26;;;;;;;;;;;;;;;22.99;51.10;100881.66;4991300;28;19922;-68
2022/09/07 09:15:58;;;;;;;;;;;;;;;23.03;51.47;100879.50;4999467;28;19972;-68
2022/09/07 09:18:27;;;;;;;;;;;;;;;23.46;50.50;100878.69;5013155;28;20015;-68
2022/09/07 09:20:56;;;;;;;;;;;;;;;23.59;49.98;100884.41;5011825;28;20270;-68
2022/09/07 09:23:24;;;;;;;;;;;;;;;23.68;49.42;100883.47;5009939;28;19922;-68
2022/09/07 09:25:52;;;;;;;;;;;;;;;23.75;48.75;100873.81;5011754;28;20313;-68
2022/09/07 09:28:19;;;;;;;;;;;;;;;23.24;49.80;100874.66;5013164;28;19932;-68
2022/09/07 09:30:46;;;;;;;;;;;;;;;23.68;49.48;100870.94;5011355;28;19969;-68
2022/09/07 09:33:13;;;;;;;;;;;;;;;23.71;48.95;100872.44;5010637;28;20003;-68
2022/09/07 09:35:40;;;;;;;;;;;;;;;24.18;48.39;100879.00;5013613;28;19921;-69
2022/09/07 09:38:27;;;;;;;;;;;;;;;24.17;47.30;100865.75;5007911;28;19955;-69
2022/09/07 09:40:55;;;;;;;;;;;;;;;24.59;46.81;100860.31;4994365;28;20040;-68
2022/09/07 09:43:23;;;;;;;;;;;;;;;24.75;46.54;100862.16;5026308;28;20460;-69
2022/09/07 09:45:52;;;;;;;;;;;;;;;24.63;46.60;100862.50;5017456;28;19925;-68
2022/09/07 09:48:20;;;;;;;;;;;;;;;25.04;46.55;100863.34;5012504;28;20436;-68
2022/09/07 09:50:48;;;;;;;;;;;;;;;25.65;44.73;100857.34;5017762;28;19922;-68
2022/09/07 09:53:24;;;;;;;;;;;;;;;25.90;44.01;100851.88;5011076;28;20339;-68
2022/09/07 09:55:51;;;;;;;;;;;;;;;25.64;44.38;100860.22;5009235;28;19969;-68
2022/09/07 09:58:26;;;;;;;;;;;;;;;25.31;44.90;100853.25;5021913;28;19964;-69
2022/09/07 10:00:54;;;;;;;;;;;;;;;25.05;45.35;100858.81;4996047;28;20007;-69
2022/09/07 10:03:21;;;;;;;;;;;;;;;25.54;44.33;100854.19;4991800;28;19992;-69
2022/09/07 10:05:47;;;;;;;;;;;;;;;25.17;44.73;100858.28;5008568;28;19925;-68
2022/09/07 10:08:19;;;;;;;;;;;;;;;25.41;45.00;100853.88;4994309;28;19999;-68
2022/09/07 10:10:54;;;;;;;;;;;;;;;25.73;45.17;100853.78;4991436;28;19968;-70
2022/09/07 10:13:21;;;;;;;;;;;;;;;26.30;43.57;100856.22;5008393;28;20293;-69
2022/09/07 10:15:50;;;;;;;;;;;;;;;26.20;44.03;100850.25;4992051;28;20016;-70
2022/09/07 10:18:20;;;;;;;;;;;;;;;26.76;43.24;100847.09;5004519;28;20339;-70
2022/09/07 10:20:46;;;;;;;;;;;;;;;27.31;41.96;100833.31;5016484;28;19965;-69
2022/09/07 10:23:19;;;;;;;;;;;;;;;27.45;42.49;100837.91;5007677;28;19961;-69
2022/09/07 10:25:46;;;;;;;;;;;;;;;27.91;40.90;100837.66;5000982;28;19921;-69
2022/09/07 10:28:17;;;;;;;;;;;;;;;28.55;39.74;100849.38;5000587;28;20317;-69
2022/09/07 10:30:49;;;;;;;;;;;;;;;28.41;41.49;100843.03;5003548;28;19925;-70
2022/09/07 10:33:19;;;;;;;;;;;;;;;28.19;40.85;100835.13;5008088;28;20412;-70
2022/09/07 10:35:50;;;;;;;;;;;;;;;28.12;40.87;100839.59;5007396;28;19957;-69
2022/09/07 10:38:17;;;;;;;;;;;;;;;27.65;40.69;100835.47;5013679;28;19927;-69
2022/09/07 10:40:45;;;;;;;;;;;;;;;27.99;40.36;100833.00;5027996;28;19929;-69
2022/09/07 10:43:22;;;;;;;;;;;;;;;28.02;41.03;100829.06;5026347;28;19968;-69
2022/09/07 10:45:56;;;;;;;;;;;;;;;28.29;40.11;100816.75;5015665;28;19921;-69
2022/09/07 10:48:27;;;;;;;;;;;;;;;28.20;40.00;100831.38;5009179;28;19964;-70
2022/09/07 10:50:56;;;;;;;;;;;;;;;28.81;38.92;100825.34;5011399;28;19922;-70
2022/09/07 10:53:29;;;;;;;;;;;;;;;28.35;39.52;100818.66;5011939;28;19960;-69
2022/09/07 10:56:03;;;;;;;;;;;;;;;28.18;39.85;100818.09;4989692;28;19925;-69
2022/09/07 10:58:36;;;;;;;;;;;;;;;27.69;40.71;100822.44;5022407;28;20372;-69
2022/09/07 11:01:07;;;;;;;;;;;;;;;27.64;41.31;100820.34;5016610;28;19972;-69
2022/09/07 11:03:46;;;;;;;;;;;;;;;27.96;41.26;100824.44;5007644;28;19933;-70
2022/09/07 11:06:17;;;;;;;;;;;;;;;27.86;40.88;100824.72;5016398;28;19975;-70
2022/09/07 11:08:52;;;;;;;;;;;;;;;26.63;42.96;100830.75;5011544;28;20011;-70
2022/09/07 11:11:24;;;;;;;;;;;;;;;26.79;43.32;100819.03;5009693;28;19921;-69
2022/09/07 11:13:56;;;;;;;;;;;;;;;26.53;43.66;100817.53;5021510;28;19921;-70
2022/09/07 11:16:24;;;;;;;;;;;;;;;26.13;45.13;100823.19;5001115;28;19928;-69
2022/09/07 11:18:52;;;;;;;;;;;;;;;26.13;44.56;100818.66;4992580;28;19925;-69
2022/09/07 11:21:21;;;;;;;;;;;;;;;26.24;45.79;100822.00;5024713;28;19929;-69
2022/09/07 11:23:52;;;;;;;;;;;;;;;26.58;44.22;100823.22;5018398;28;19975;-70
2022/09/07 11:26:20;;;;;;;;;;;;;;;26.44;44.67;100815.09;5008534;28;19961;-69
2022/09/07 11:28:49;;;;;;;;;;;;;;;26.37;44.20;100811.47;4996221;28;19971;-69
2022/09/07 11:31:20;;;;;;;;;;;;;;;26.43;45.53;100808.03;5015985;28;19975;-69
2022/09/07 11:33:53;;;;;;;;;;;;;;;26.49;45.00;100801.97;5014277;28;19929;-69
2022/09/07 11:36:20;;;;;;;;;;;;;;;27.59;42.46;100793.13;5006429;28;19929;-69
2022/09/07 11:38:50;;;;;;;;;;;;;;;27.78;41.21;100797.91;4985662;28;19953;-69
2022/09/07 11:41:20;;;;;;;;;;;;;;;27.79;41.73;100791.50;5006167;28;19921;-69
2022/09/07 11:43:49;;;;;;;;;;;;;;;28.05;41.16;100807.97;5018041;28;20392;-69
2022/09/07 11:46:17;;;;;;;;;;;;;;;28.45;41.20;100803.03;5003724;28;19930;-68
2022/09/07 11:48:46;;;;;;;;;;;;;;;28.91;39.68;100801.56;5010003;28;19921;-68
2022/09/07 11:51:15;;;;;;;;;;;;;;;29.77;39.56;100805.59;5004674;28;19925;-68
2022/09/07 11:53:43;;;;;;;;;;;;;;;29.30;38.05;100806.41;5014907;28;19925;-68
2022/09/07 11:56:12;;;;;;;;;;;;;;;29.67;38.72;100798.91;5015596;28;20025;-68
2022/09/07 11:58:49;;;;;;;;;;;;;;;29.97;37.03;100799.44;5008018;28;20275;-68
2022/09/07 12:01:24;;;;;;;;;;;;;;;29.74;37.70;100800.59;5020539;28;19975;-68
2022/09/07 12:04:10;;;;;;;;;;;;;;;29.26;38.66;100796.19;5026217;28;20187;-68
2022/09/07 12:06:48;;;;;;;;;;;;;;;29.35;38.68;100801.22;5025243;28;19925;-69
2022/09/07 12:09:23;;;;;;;;;;;;;;;30.00;37.81;100794.47;5021393;28;19921;-68
2022/09/07 12:12:00;;;;;;;;;;;;;;;30.33;38.10;100799.94;4999159;28;19964;-67
2022/09/07 12:14:34;;;;;;;;;;;;;;;30.46;38.06;100799.97;5011255;28;19921;-68
2022/09/07 12:17:07;;;;;;;;;;;;;;;31.06;35.76;100781.84;4988080;28;19949;-68
2022/09/07 12:19:34;;;;;;;;;;;;;;;31.36;35.59;100781.16;5004411;28;19929;-68
2022/09/07 12:22:01;;;;;;;;;;;;;;;31.38;36.54;100776.34;5015765;28;19975;-68
2022/09/07 12:24:47;;;;;;;;;;;;;;;31.58;34.27;100767.34;5020188;28;19970;-68
2022/09/07 12:27:32;;;;;;;;;;;;;;;31.35;34.60;100762.38;5001861;28;19922;-69
2022/09/07 12:30:17;;;;;;;;;;;;;;;31.46;35.64;100755.47;5004736;28;20047;-68
2022/09/07 12:33:04;;;;;;;;;;;;;;;32.00;34.67;100755.00;4993864;28;19921;-68
2022/09/07 12:35:40;;;;;;;;;;;;;;;31.65;34.47;100755.41;5017916;28;20412;-68
2022/09/07 12:38:22;;;;;;;;;;;;;;;30.75;35.46;100761.66;5024087;28;20478;-68
2022/09/07 12:40:58;;;;;;;;;;;;;;;30.59;36.05;100761.25;4989583;28;19922;-68
2022/09/07 12:43:31;;;;;;;;;;;;;;;30.83;36.27;100763.31;5025163;28;20403;-68